sensor_id;sensor_type;location;lat;lon;timestamp;pressure;altitude;pressure_sealevel;temperature;humidity
42601;BME280;28229;48.856;9.088;2023-01-27T00:00:24;98186.38;;;-2.20;96.60
42601;BME280;28229;48.856;9.088;2023-01-27T00:02:50;98184.88;;;-2.22;96.78
42601;BME280;28229;48.856;9.088;2023-01-27T00:05:16;98184.03;;;-2.23;97.15
42601;BME280;28229;48.856;9.088;2023-01-27T00:07:43;98192.19;;;-2.18;97.13
42601;BME280;28229;48.856;9.088;2023-01-27T00:10:16;98183.78;;;-2.20;97.35
42601;BME280;28229;48.856;9.088;2023-01-27T00:12:44;98178.88;;;-2.23;97.53
42601;BME280;28229;48.856;9.088;2023-01-27T00:15:31;98182.56;;;-2.25;97.89
42601;BME280;28229;48.856;9.088;2023-01-27T00:17:58;98181.75;;;-2.26;97.92
42601;BME280;28229;48.856;9.088;2023-01-27T00:20:24;98182.19;;;-2.21;97.09
42601;BME280;28229;48.856;9.088;2023-01-27T00:23:20;98183.22;;;-2.23;96.81
42601;BME280;28229;48.856;9.088;2023-01-27T00:26:07;98182.31;;;-2.22;97.16
42601;BME280;28229;48.856;9.088;2023-01-27T00:28:36;98181.88;;;-2.27;96.79
42601;BME280;28229;48.856;9.088;2023-01-27T00:31:04;98172.91;;;-2.33;97.13
42601;BME280;28229;48.856;9.088;2023-01-27T00:33:30;98174.50;;;-2.32;96.45
42601;BME280;28229;48.856;9.088;2023-01-27T00:36:05;98172.50;;;-2.28;97.28
42601;BME280;28229;48.856;9.088;2023-01-27T00:38:34;98169.50;;;-2.34;97.32
42601;BME280;28229;48.856;9.088;2023-01-27T00:41:06;98172.63;;;-2.30;97.17
42601;BME280;28229;48.856;9.088;2023-01-27T00:43:46;98179.41;;;-2.29;96.69
42601;BME280;28229;48.856;9.088;2023-01-27T00:46:13;98172.06;;;-2.34;97.58
42601;BME280;28229;48.856;9.088;2023-01-27T00:48:40;98178.19;;;-2.25;97.19
42601;BME280;28229;48.856;9.088;2023-01-27T00:51:06;98185.13;;;-2.25;97.08
42601;BME280;28229;48.856;9.088;2023-01-27T00:53:32;98179.72;;;-2.22;96.16
42601;BME280;28229;48.856;9.088;2023-01-27T00:55:59;98184.75;;;-2.21;95.45
42601;BME280;28229;48.856;9.088;2023-01-27T00:58:26;98178.63;;;-2.20;94.62
42601;BME280;28229;48.856;9.088;2023-01-27T01:00:54;98180.28;;;-2.19;94.80
42601;BME280;28229;48.856;9.088;2023-01-27T01:03:21;98183.78;;;-2.20;94.52
42601;BME280;28229;48.856;9.088;2023-01-27T01:05:48;98175.69;;;-2.15;94.44
42601;BME280;28229;48.856;9.088;2023-01-27T01:08:16;98175.81;;;-2.17;94.35
42601;BME280;28229;48.856;9.088;2023-01-27T01:10:42;98180.97;;;-2.17;94.60
42601;BME280;28229;48.856;9.088;2023-01-27T01:13:15;98185.88;;;-2.14;94.26
42601;BME280;28229;48.856;9.088;2023-01-27T01:15:41;98192.75;;;-2.14;94.40
42601;BME280;28229;48.856;9.088;2023-01-27T01:18:09;98189.00;;;-2.10;94.37
42601;BME280;28229;48.856;9.088;2023-01-27T01:20:41;98185.44;;;-2.09;94.39
42601;BME280;28229;48.856;9.088;2023-01-27T01:23:08;98184.09;;;-2.13;94.25
42601;BME280;28229;48.856;9.088;2023-01-27T01:25:35;98191.44;;;-2.08;94.17
42601;BME280;28229;48.856;9.088;2023-01-27T01:28:05;98195.75;;;-2.09;94.04
42601;BME280;28229;48.856;9.088;2023-01-27T01:30:35;98188.44;;;-2.14;94.59
42601;BME280;28229;48.856;9.088;2023-01-27T01:33:02;98187.09;;;-2.08;94.56
42601;BME280;28229;48.856;9.088;2023-01-27T01:35:29;98191.44;;;-2.08;94.60
42601;BME280;28229;48.856;9.088;2023-01-27T01:37:56;98193.19;;;-2.09;94.85
42601;BME280;28229;48.856;9.088;2023-01-27T01:40:22;98193.88;;;-2.07;94.95
42601;BME280;28229;48.856;9.088;2023-01-27T01:48:00;98175.56;;;-2.04;94.21
42601;BME280;28229;48.856;9.088;2023-01-27T01:50:29;98184.94;;;-2.03;93.66
42601;BME280;28229;48.856;9.088;2023-01-27T01:52:56;98178.16;;;-2.04;93.52
42601;BME280;28229;48.856;9.088;2023-01-27T01:55:24;98168.50;;;-2.02;93.12
42601;BME280;28229;48.856;9.088;2023-01-27T01:57:51;98166.78;;;-2.01;92.94
42601;BME280;28229;48.856;9.088;2023-01-27T02:00:17;98164.03;;;-2.09;93.77
42601;BME280;28229;48.856;9.088;2023-01-27T02:02:46;98164.88;;;-1.99;93.60
42601;BME280;28229;48.856;9.088;2023-01-27T02:05:16;98161.34;;;-1.98;93.52
42601;BME280;28229;48.856;9.088;2023-01-27T02:07:46;98163.22;;;-2.00;93.10
42601;BME280;28229;48.856;9.088;2023-01-27T02:10:16;98165.94;;;-2.02;93.58
42601;BME280;28229;48.856;9.088;2023-01-27T02:12:44;98157.69;;;-1.96;93.43
42601;BME280;28229;48.856;9.088;2023-01-27T02:15:11;98157.41;;;-1.93;93.20
42601;BME280;28229;48.856;9.088;2023-01-27T02:17:38;98153.47;;;-1.97;93.33
42601;BME280;28229;48.856;9.088;2023-01-27T02:23:01;98160.13;;;-1.94;93.34
42601;BME280;28229;48.856;9.088;2023-01-27T02:28:07;98158.06;;;-2.10;92.77
42601;BME280;28229;48.856;9.088;2023-01-27T02:30:34;98160.22;;;-2.05;93.27
42601;BME280;28229;48.856;9.088;2023-01-27T02:33:00;98155.75;;;-2.13;93.87
42601;BME280;28229;48.856;9.088;2023-01-27T02:35:34;98152.47;;;-2.15;93.84
42601;BME280;28229;48.856;9.088;2023-01-27T02:38:03;98152.50;;;-2.05;93.65
42601;BME280;28229;48.856;9.088;2023-01-27T02:40:32;98152.38;;;-2.04;93.09
42601;BME280;28229;48.856;9.088;2023-01-27T02:42:59;98152.38;;;-2.04;92.67
42601;BME280;28229;48.856;9.088;2023-01-27T02:45:25;98150.47;;;-2.02;93.22
42601;BME280;28229;48.856;9.088;2023-01-27T02:47:51;98147.09;;;-2.02;93.13
42601;BME280;28229;48.856;9.088;2023-01-27T02:50:18;98152.63;;;-2.07;93.42
42601;BME280;28229;48.856;9.088;2023-01-27T02:52:44;98154.25;;;-2.06;93.96
42601;BME280;28229;48.856;9.088;2023-01-27T02:55:11;98155.25;;;-1.97;93.82
42601;BME280;28229;48.856;9.088;2023-01-27T02:57:38;98152.38;;;-2.04;94.09
42601;BME280;28229;48.856;9.088;2023-01-27T03:00:25;98152.66;;;-1.97;93.22
42601;BME280;28229;48.856;9.088;2023-01-27T03:02:53;98155.25;;;-1.97;92.84
42601;BME280;28229;48.856;9.088;2023-01-27T03:05:19;98149.97;;;-1.96;92.67
42601;BME280;28229;48.856;9.088;2023-01-27T03:07:45;98144.78;;;-1.96;92.74
42601;BME280;28229;48.856;9.088;2023-01-27T03:10:12;98145.06;;;-1.99;92.34
42601;BME280;28229;48.856;9.088;2023-01-27T03:12:39;98147.75;;;-2.00;92.58
42601;BME280;28229;48.856;9.088;2023-01-27T03:15:05;98154.44;;;-1.98;91.97
42601;BME280;28229;48.856;9.088;2023-01-27T03:17:50;98149.78;;;-2.04;92.17
42601;BME280;28229;48.856;9.088;2023-01-27T03:20:35;98158.31;;;-2.03;91.99
42601;BME280;28229;48.856;9.088;2023-01-27T03:23:02;98149.38;;;-2.09;92.52
42601;BME280;28229;48.856;9.088;2023-01-27T03:25:29;98153.84;;;-2.11;92.55
42601;BME280;28229;48.856;9.088;2023-01-27T03:27:56;98153.16;;;-2.13;92.60
42601;BME280;28229;48.856;9.088;2023-01-27T03:30:32;98146.09;;;-2.11;92.08
42601;BME280;28229;48.856;9.088;2023-01-27T03:33:08;98155.75;;;-2.13;92.30
42601;BME280;28229;48.856;9.088;2023-01-27T03:35:52;98158.56;;;-2.16;92.33
42601;BME280;28229;48.856;9.088;2023-01-27T03:38:45;98161.81;;;-2.14;92.08
42601;BME280;28229;48.856;9.088;2023-01-27T03:41:30;98161.31;;;-2.08;92.26
42601;BME280;28229;48.856;9.088;2023-01-27T03:44:15;98157.63;;;-2.15;93.12
42601;BME280;28229;48.856;9.088;2023-01-27T03:47:00;98164.84;;;-2.09;93.11
42601;BME280;28229;48.856;9.088;2023-01-27T03:49:26;98166.56;;;-2.19;93.35
42601;BME280;28229;48.856;9.088;2023-01-27T03:51:53;98164.84;;;-2.09;93.93
42601;BME280;28229;48.856;9.088;2023-01-27T03:54:19;98166.59;;;-2.09;93.94
42601;BME280;28229;48.856;9.088;2023-01-27T03:56:45;98165.66;;;-2.08;93.63
42601;BME280;28229;48.856;9.088;2023-01-27T03:59:13;98162.66;;;-2.14;94.21
42601;BME280;28229;48.856;9.088;2023-01-27T04:01:40;98166.22;;;-2.05;93.83
42601;BME280;28229;48.856;9.088;2023-01-27T04:04:07;98162.13;;;-2.07;93.09
42601;BME280;28229;48.856;9.088;2023-01-27T04:06:52;98159.97;;;-2.12;93.53
42601;BME280;28229;48.856;9.088;2023-01-27T04:09:27;98171.47;;;-2.16;93.50
42601;BME280;28229;48.856;9.088;2023-01-27T04:11:55;98169.41;;;-2.22;93.84
42601;BME280;28229;48.856;9.088;2023-01-27T04:14:30;98168.44;;;-2.21;94.22
42601;BME280;28229;48.856;9.088;2023-01-27T04:17:05;98170.59;;;-2.26;93.91
42601;BME280;28229;48.856;9.088;2023-01-27T04:19:32;98166.97;;;-2.24;94.28
42601;BME280;28229;48.856;9.088;2023-01-27T04:21:59;98173.09;;;-2.15;94.50
42601;BME280;28229;48.856;9.088;2023-01-27T04:24:26;98179.72;;;-2.22;94.24
42601;BME280;28229;48.856;9.088;2023-01-27T04:26:57;98184.09;;;-2.13;94.77
42601;BME280;28229;48.856;9.088;2023-01-27T04:29:26;98179.91;;;-2.04;94.64
42601;BME280;28229;48.856;9.088;2023-01-27T04:31:53;98182.75;;;-2.07;95.01
42601;BME280;28229;48.856;9.088;2023-01-27T04:34:20;98183.84;;;-2.10;94.52
42601;BME280;28229;48.856;9.088;2023-01-27T04:36:46;98190.59;;;-2.09;94.52
42601;BME280;28229;48.856;9.088;2023-01-27T04:39:13;98187.34;;;-2.11;94.50
42601;BME280;28229;48.856;9.088;2023-01-27T04:41:40;98180.03;;;-2.06;94.76
42601;BME280;28229;48.856;9.088;2023-01-27T04:44:07;98171.63;;;-2.08;94.10
42601;BME280;28229;48.856;9.088;2023-01-27T04:46:33;98173.25;;;-2.07;93.73
42601;BME280;28229;48.856;9.088;2023-01-27T04:49:00;98188.22;;;-2.01;93.62
42601;BME280;28229;48.856;9.088;2023-01-27T04:51:26;98184.66;;;-2.09;93.67
42601;BME280;28229;48.856;9.088;2023-01-27T04:53:53;98187.91;;;-2.07;93.96
42601;BME280;28229;48.856;9.088;2023-01-27T04:56:23;98182.88;;;-2.09;94.15
42601;BME280;28229;48.856;9.088;2023-01-27T04:58:50;98179.19;;;-2.16;94.70
42601;BME280;28229;48.856;9.088;2023-01-27T05:01:16;98176.34;;;-2.13;93.79
42601;BME280;28229;48.856;9.088;2023-01-27T05:03:42;98171.88;;;-2.11;94.04
42601;BME280;28229;48.856;9.088;2023-01-27T05:06:09;98178.13;;;-2.14;94.07
42601;BME280;28229;48.856;9.088;2023-01-27T05:08:36;98175.69;;;-2.15;94.18
42601;BME280;28229;48.856;9.088;2023-01-27T05:11:03;98172.13;;;-2.14;94.42
42601;BME280;28229;48.856;9.088;2023-01-27T05:13:29;98180.28;;;-2.19;94.84
42601;BME280;28229;48.856;9.088;2023-01-27T05:16:22;98175.38;;;-2.22;95.29
42601;BME280;28229;48.856;9.088;2023-01-27T05:18:50;98179.03;;;-2.24;95.70
42601;BME280;28229;48.856;9.088;2023-01-27T05:21:20;98170.78;;;-2.18;96.32
42601;BME280;28229;48.856;9.088;2023-01-27T05:23:46;98171.22;;;-2.13;96.43
42601;BME280;28229;48.856;9.088;2023-01-27T05:26:19;98160.22;;;-2.15;95.67
42601;BME280;28229;48.856;9.088;2023-01-27T05:28:46;98164.16;;;-2.11;95.48
42601;BME280;28229;48.856;9.088;2023-01-27T05:31:14;98186.53;;;-2.12;95.60
42601;BME280;28229;48.856;9.088;2023-01-27T05:33:41;98186.00;;;-2.15;95.80
42601;BME280;28229;48.856;9.088;2023-01-27T05:36:13;98190.19;;;-2.14;96.19
42601;BME280;28229;48.856;9.088;2023-01-27T05:38:40;98196.31;;;-2.15;96.65
42601;BME280;28229;48.856;9.088;2023-01-27T05:41:08;98198.44;;;-2.20;96.78
42601;BME280;28229;48.856;9.088;2023-01-27T05:43:37;98203.59;;;-2.20;97.00
42601;BME280;28229;48.856;9.088;2023-01-27T05:46:16;98205.81;;;-2.16;96.46
42601;BME280;28229;48.856;9.088;2023-01-27T05:48:45;98216.63;;;-2.22;95.85
42601;BME280;28229;48.856;9.088;2023-01-27T05:51:14;98221.09;;;-2.24;95.89
42601;BME280;28229;48.856;9.088;2023-01-27T05:53:42;98218.09;;;-2.19;96.16
42601;BME280;28229;48.856;9.088;2023-01-27T05:56:10;98218.19;;;-2.31;96.09
42601;BME280;28229;48.856;9.088;2023-01-27T05:58:37;98211.69;;;-2.35;95.98
42601;BME280;28229;48.856;9.088;2023-01-27T06:01:15;98205.88;;;-2.27;95.75
42601;BME280;28229;48.856;9.088;2023-01-27T06:03:42;98206.84;;;-2.28;96.00
42601;BME280;28229;48.856;9.088;2023-01-27T06:06:10;98211.03;;;-2.27;96.24
42601;BME280;28229;48.856;9.088;2023-01-27T06:08:37;98209.00;;;-2.23;96.34
42601;BME280;28229;48.856;9.088;2023-01-27T06:11:04;98196.31;;;-2.15;96.33
42601;BME280;28229;48.856;9.088;2023-01-27T06:13:30;98207.78;;;-2.19;96.05
42601;BME280;28229;48.856;9.088;2023-01-27T06:15:56;98206.19;;;-2.20;95.77
42601;BME280;28229;48.856;9.088;2023-01-27T06:18:23;98214.16;;;-2.23;95.09
42601;BME280;28229;48.856;9.088;2023-01-27T06:20:49;98206.13;;;-2.30;95.52
42601;BME280;28229;48.856;9.088;2023-01-27T06:23:16;98208.50;;;-2.17;95.71
42601;BME280;28229;48.856;9.088;2023-01-27T06:25:44;98212.00;;;-2.18;96.02
42601;BME280;28229;48.856;9.088;2023-01-27T06:28:12;98211.72;;;-2.25;96.09
42601;BME280;28229;48.856;9.088;2023-01-27T06:30:39;98205.22;;;-2.19;96.47
42601;BME280;28229;48.856;9.088;2023-01-27T06:33:05;98212.38;;;-2.23;95.95
42601;BME280;28229;48.856;9.088;2023-01-27T06:35:33;98208.22;;;-2.14;96.06
42601;BME280;28229;48.856;9.088;2023-01-27T06:38:01;98212.44;;;-2.13;95.46
42601;BME280;28229;48.856;9.088;2023-01-27T06:40:29;98220.19;;;-2.13;95.76
42601;BME280;28229;48.856;9.088;2023-01-27T06:42:57;98222.94;;;-2.05;97.63
42601;BME280;28229;48.856;9.088;2023-01-27T06:45:23;98217.66;;;-1.43;100.00
42601;BME280;28229;48.856;9.088;2023-01-27T06:47:54;98224.88;;;-1.18;100.00
42601;BME280;28229;48.856;9.088;2023-01-27T06:50:21;98225.13;;;-0.91;100.00
42601;BME280;28229;48.856;9.088;2023-01-27T06:52:48;98236.16;;;-0.80;100.00
42601;BME280;28229;48.856;9.088;2023-01-27T06:55:14;98241.84;;;-0.86;97.53
42601;BME280;28229;48.856;9.088;2023-01-27T06:57:41;98241.06;;;-0.96;94.90
42601;BME280;28229;48.856;9.088;2023-01-27T07:00:08;98243.91;;;-1.19;92.65
42601;BME280;28229;48.856;9.088;2023-01-27T07:02:34;98249.31;;;-1.22;93.96
42601;BME280;28229;48.856;9.088;2023-01-27T07:05:00;98253.81;;;-1.24;94.39
42601;BME280;28229;48.856;9.088;2023-01-27T07:07:26;98265.22;;;-1.17;94.85
42601;BME280;28229;48.856;9.088;2023-01-27T07:09:52;98267.69;;;-1.15;95.30
42601;BME280;28229;48.856;9.088;2023-01-27T07:12:18;98267.28;;;-1.10;94.40
42601;BME280;28229;48.856;9.088;2023-01-27T07:14:45;98269.28;;;-1.24;93.58
42601;BME280;28229;48.856;9.088;2023-01-27T07:17:11;98279.34;;;-1.30;92.69
42601;BME280;28229;48.856;9.088;2023-01-27T07:19:37;98282.88;;;-1.31;93.66
42601;BME280;28229;48.856;9.088;2023-01-27T07:22:03;98281.09;;;-1.31;93.98
42601;BME280;28229;48.856;9.088;2023-01-27T07:24:29;98286.94;;;-1.29;93.61
42601;BME280;28229;48.856;9.088;2023-01-27T07:26:56;98280.44;;;-1.33;93.44
42601;BME280;28229;48.856;9.088;2023-01-27T07:29:22;98288.44;;;-1.36;93.45
42601;BME280;28229;48.856;9.088;2023-01-27T07:31:48;98283.13;;;-1.35;92.76
42601;BME280;28229;48.856;9.088;2023-01-27T07:34:15;98277.97;;;-1.44;93.02
42601;BME280;28229;48.856;9.088;2023-01-27T07:36:41;98274.28;;;-1.51;92.63
42601;BME280;28229;48.856;9.088;2023-01-27T07:39:07;98286.66;;;-1.45;92.37
42601;BME280;28229;48.856;9.088;2023-01-27T07:41:34;98290.44;;;-1.49;91.95
42601;BME280;28229;48.856;9.088;2023-01-27T07:44:01;98302.91;;;-1.55;92.12
42601;BME280;28229;48.856;9.088;2023-01-27T07:46:27;98295.06;;;-1.53;92.44
42601;BME280;28229;48.856;9.088;2023-01-27T07:48:53;98294.22;;;-1.54;92.52
42601;BME280;28229;48.856;9.088;2023-01-27T07:51:19;98295.53;;;-1.69;90.98
42601;BME280;28229;48.856;9.088;2023-01-27T07:53:45;98301.63;;;-1.70;91.79
42601;BME280;28229;48.856;9.088;2023-01-27T07:56:12;98303.66;;;-1.74;91.72
42601;BME280;28229;48.856;9.088;2023-01-27T07:58:38;98313.59;;;-1.69;92.28
42601;BME280;28229;48.856;9.088;2023-01-27T08:01:06;98312.38;;;-1.75;91.49
42601;BME280;28229;48.856;9.088;2023-01-27T08:03:32;98311.28;;;-1.72;91.84
42601;BME280;28229;48.856;9.088;2023-01-27T08:06:02;98316.19;;;-1.69;91.97
42601;BME280;28229;48.856;9.088;2023-01-27T08:08:29;98312.81;;;-1.60;93.02
42601;BME280;28229;48.856;9.088;2023-01-27T08:10:58;98311.34;;;-1.52;92.01
42601;BME280;28229;48.856;9.088;2023-01-27T08:13:24;98310.81;;;-1.46;92.34
42601;BME280;28229;48.856;9.088;2023-01-27T08:15:59;98311.22;;;-1.41;92.17
42601;BME280;28229;48.856;9.088;2023-01-27T08:18:27;98314.91;;;-1.34;91.74
42601;BME280;28229;48.856;9.088;2023-01-27T08:20:54;98320.91;;;-1.33;92.69
42601;BME280;28229;48.856;9.088;2023-01-27T08:23:21;98318.03;;;-1.30;91.47
42601;BME280;28229;48.856;9.088;2023-01-27T08:25:49;98330.69;;;-1.27;92.18
42601;BME280;28229;48.856;9.088;2023-01-27T08:28:17;98322.56;;;-1.23;92.40
42601;BME280;28229;48.856;9.088;2023-01-27T08:30:44;98324.44;;;-1.25;92.75
42601;BME280;28229;48.856;9.088;2023-01-27T08:33:10;98321.31;;;-1.28;89.82
42601;BME280;28229;48.856;9.088;2023-01-27T08:35:37;98333.66;;;-1.32;90.96
42601;BME280;28229;48.856;9.088;2023-01-27T08:38:07;98336.59;;;-1.46;90.49
42601;BME280;28229;48.856;9.088;2023-01-27T08:40:33;98334.13;;;-1.58;90.28
42601;BME280;28229;48.856;9.088;2023-01-27T08:43:00;98334.13;;;-1.58;90.33
42601;BME280;28229;48.856;9.088;2023-01-27T08:45:27;98329.84;;;-1.47;91.05
42601;BME280;28229;48.856;9.088;2023-01-27T08:47:53;98338.25;;;-1.45;92.09
42601;BME280;28229;48.856;9.088;2023-01-27T08:50:20;98340.66;;;-1.54;92.27
42601;BME280;28229;48.856;9.088;2023-01-27T08:52:46;98341.22;;;-1.50;91.04
42601;BME280;28229;48.856;9.088;2023-01-27T08:55:12;98339.59;;;-1.51;90.79
42601;BME280;28229;48.856;9.088;2023-01-27T08:57:38;98334.31;;;-1.49;91.17
42601;BME280;28229;48.856;9.088;2023-01-27T09:00:18;98347.09;;;-1.48;91.08
42601;BME280;28229;48.856;9.088;2023-01-27T09:02:44;98345.63;;;-1.41;91.11
42601;BME280;28229;48.856;9.088;2023-01-27T09:05:11;98356.75;;;-1.40;90.82
42601;BME280;28229;48.856;9.088;2023-01-27T09:07:37;98349.25;;;-1.43;90.61
42601;BME280;28229;48.856;9.088;2023-01-27T09:10:04;98345.06;;;-1.44;91.02
42601;BME280;28229;48.856;9.088;2023-01-27T09:12:30;98352.09;;;-1.46;91.49
42601;BME280;28229;48.856;9.088;2023-01-27T09:14:56;98348.75;;;-1.37;91.75
42601;BME280;28229;48.856;9.088;2023-01-27T09:17:24;98342.50;;;-1.35;90.34
42601;BME280;28229;48.856;9.088;2023-01-27T09:19:50;98336.78;;;-1.38;90.00
42601;BME280;28229;48.856;9.088;2023-01-27T09:22:16;98339.66;;;-1.31;91.09
42601;BME280;28229;48.856;9.088;2023-01-27T09:24:43;98346.75;;;-1.24;90.43
42601;BME280;28229;48.856;9.088;2023-01-27T09:27:09;98342.38;;;-1.33;89.68
42601;BME280;28229;48.856;9.088;2023-01-27T09:29:35;98342.38;;;-1.33;90.69
42601;BME280;28229;48.856;9.088;2023-01-27T09:32:02;98334.25;;;-1.19;90.41
42601;BME280;28229;48.856;9.088;2023-01-27T09:34:29;98350.84;;;-1.21;90.25
42601;BME280;28229;48.856;9.088;2023-01-27T09:36:59;98344.31;;;-1.16;90.28
42601;BME280;28229;48.856;9.088;2023-01-27T09:39:28;98350.56;;;-1.18;90.06
42601;BME280;28229;48.856;9.088;2023-01-27T09:41:59;98347.84;;;-1.17;89.65
42601;BME280;28229;48.856;9.088;2023-01-27T09:44:48;98358.00;;;-1.25;88.67
42601;BME280;28229;48.856;9.088;2023-01-27T09:50:03;98353.56;;;-1.13;89.22
42601;BME280;28229;48.856;9.088;2023-01-27T09:55:36;98350.31;;;-1.05;88.89
42601;BME280;28229;48.856;9.088;2023-01-27T10:01:30;98351.81;;;-0.93;87.35
42601;BME280;28229;48.856;9.088;2023-01-27T10:09:36;98354.69;;;-0.96;86.13
42601;BME280;28229;48.856;9.088;2023-01-27T10:13:03;98353.22;;;-0.89;86.19
42601;BME280;28229;48.856;9.088;2023-01-27T10:21:15;98348.47;;;-0.74;84.62
42601;BME280;28229;48.856;9.088;2023-01-27T10:26:48;98344.78;;;-0.71;84.39
42601;BME280;28229;48.856;9.088;2023-01-27T10:29:29;98340.56;;;-0.63;84.50
42601;BME280;28229;48.856;9.088;2023-01-27T10:32:10;98338.13;;;-0.64;83.91
42601;BME280;28229;48.856;9.088;2023-01-27T10:35:01;98343.84;;;-0.61;83.71
42601;BME280;28229;48.856;9.088;2023-01-27T10:40:30;98338.41;;;-0.48;84.28
42601;BME280;28229;48.856;9.088;2023-01-27T10:43:32;98345.06;;;-0.45;83.47
42601;BME280;28229;48.856;9.088;2023-01-27T10:49:03;98347.50;;;-0.44;82.91
42601;BME280;28229;48.856;9.088;2023-01-27T10:51:38;98347.34;;;-0.32;83.41
42601;BME280;28229;48.856;9.088;2023-01-27T10:56:50;98343.28;;;-0.45;80.97
42601;BME280;28229;48.856;9.088;2023-01-27T11:02:30;98352.00;;;-0.26;82.76
42601;BME280;28229;48.856;9.088;2023-01-27T11:05:01;98348.69;;;-0.18;82.96
42601;BME280;28229;48.856;9.088;2023-01-27T11:07:31;98358.50;;;-0.22;81.83
42601;BME280;28229;48.856;9.088;2023-01-27T11:10:06;98347.63;;;-0.26;81.61
42601;BME280;28229;48.856;9.088;2023-01-27T11:12:36;98350.06;;;-0.24;82.22
42601;BME280;28229;48.856;9.088;2023-01-27T11:15:29;98358.38;;;-0.21;82.85
42601;BME280;28229;48.856;9.088;2023-01-27T11:18:03;98353.59;;;-0.15;82.89
42601;BME280;28229;48.856;9.088;2023-01-27T11:20:41;98364.50;;;-0.12;81.24
42601;BME280;28229;48.856;9.088;2023-01-27T11:23:20;98342.84;;;-0.11;82.31
42601;BME280;28229;48.856;9.088;2023-01-27T11:28:54;98338.66;;;-0.31;81.52
42601;BME280;28229;48.856;9.088;2023-01-27T11:58:22;98328.34;;;-0.51;84.59
42601;BME280;28229;48.856;9.088;2023-01-27T12:01:19;98324.25;;;-0.44;84.65
42601;BME280;28229;48.856;9.088;2023-01-27T12:07:42;98324.50;;;-0.47;85.08
42601;BME280;28229;48.856;9.088;2023-01-27T12:12:56;98315.78;;;-0.36;85.49
42601;BME280;28229;48.856;9.088;2023-01-27T12:15:27;98316.19;;;-0.21;85.45
42601;BME280;28229;48.856;9.088;2023-01-27T12:17:59;98310.63;;;-0.26;84.96
42601;BME280;28229;48.856;9.088;2023-01-27T12:20:36;98311.69;;;-0.19;85.81
42601;BME280;28229;48.856;9.088;2023-01-27T12:23:21;98310.31;;;-0.13;85.09
42601;BME280;28229;48.856;9.088;2023-01-27T12:25:53;98304.09;;;-0.30;83.87
42601;BME280;28229;48.856;9.088;2023-01-27T12:28:31;98308.16;;;-0.28;83.74
42601;BME280;28229;48.856;9.088;2023-01-27T12:31:26;98311.97;;;-0.22;85.61
42601;BME280;28229;48.856;9.088;2023-01-27T12:33:59;98303.41;;;-0.32;84.30
42601;BME280;28229;48.856;9.088;2023-01-27T12:36:27;98305.72;;;-0.29;84.94
42601;BME280;28229;48.856;9.088;2023-01-27T12:38:56;98302.88;;;-0.26;84.81
42601;BME280;28229;48.856;9.088;2023-01-27T12:44:12;98302.31;;;-0.30;84.96
42601;BME280;28229;48.856;9.088;2023-01-27T12:47:03;98299.22;;;-0.53;83.94
42601;BME280;28229;48.856;9.088;2023-01-27T12:49:44;98303.56;;;-0.44;85.44
42601;BME280;28229;48.856;9.088;2023-01-27T12:52:20;98313.38;;;-0.57;85.45
42601;BME280;28229;48.856;9.088;2023-01-27T12:54:47;98309.44;;;-0.51;86.05
42601;BME280;28229;48.856;9.088;2023-01-27T12:57:18;98311.72;;;-0.48;86.40
42601;BME280;28229;48.856;9.088;2023-01-27T12:59:56;98311.16;;;-0.32;86.17
42601;BME280;28229;48.856;9.088;2023-01-27T13:03:10;98314.44;;;-0.30;85.35
42601;BME280;28229;48.856;9.088;2023-01-27T13:06:06;98310.34;;;-0.33;85.81
42601;BME280;28229;48.856;9.088;2023-01-27T13:08:38;98314.03;;;-0.35;85.31
42601;BME280;28229;48.856;9.088;2023-01-27T13:11:10;98309.81;;;-0.27;84.96
42601;BME280;28229;48.856;9.088;2023-01-27T13:13:47;98313.88;;;-0.24;85.79
42601;BME280;28229;48.856;9.088;2023-01-27T13:16:17;98317.41;;;-0.25;85.15
42601;BME280;28229;48.856;9.088;2023-01-27T13:18:55;98309.16;;;-0.39;85.05
42601;BME280;28229;48.856;9.088;2023-01-27T13:24:13;98308.34;;;-0.39;84.59
42601;BME280;28229;48.856;9.088;2023-01-27T13:26:49;98303.00;;;-0.38;84.88
42601;BME280;28229;48.856;9.088;2023-01-27T13:29:27;98307.38;;;-0.48;85.09
42601;BME280;28229;48.856;9.088;2023-01-27T13:32:09;98314.72;;;-0.33;85.25
42601;BME280;28229;48.856;9.088;2023-01-27T13:34:46;98320.97;;;-0.36;85.33
42601;BME280;28229;48.856;9.088;2023-01-27T13:37:36;98312.97;;;-0.43;84.59
42601;BME280;28229;48.856;9.088;2023-01-27T13:40:17;98316.50;;;-0.44;84.39
42601;BME280;28229;48.856;9.088;2023-01-27T13:42:52;98314.19;;;-0.56;84.78
42601;BME280;28229;48.856;9.088;2023-01-27T13:46:12;98321.28;;;-0.59;84.79
42601;BME280;28229;48.856;9.088;2023-01-27T13:49:35;98320.72;;;-0.62;84.92
42601;BME280;28229;48.856;9.088;2023-01-27T13:52:10;98330.50;;;-0.56;85.43
42601;BME280;28229;48.856;9.088;2023-01-27T13:55:00;98331.31;;;-0.46;85.67
42601;BME280;28229;48.856;9.088;2023-01-27T13:58:16;98332.94;;;-0.45;85.07
42601;BME280;28229;48.856;9.088;2023-01-27T14:03:52;98337.03;;;-0.62;85.29
42601;BME280;28229;48.856;9.088;2023-01-27T14:15:43;98350.34;;;-0.66;86.28
42601;BME280;28229;48.856;9.088;2023-01-27T14:18:21;98349.56;;;-0.57;85.80
42601;BME280;28229;48.856;9.088;2023-01-27T14:32:26;98355.81;;;-0.60;86.12
42601;BME280;28229;48.856;9.088;2023-01-27T14:55:24;98356.72;;;-0.22;84.16
42601;BME280;28229;48.856;9.088;2023-01-27T14:58:29;98360.97;;;-0.21;84.03
42601;BME280;28229;48.856;9.088;2023-01-27T15:15:36;98351.03;;;-0.15;84.50
42601;BME280;28229;48.856;9.088;2023-01-27T15:26:30;98366.69;;;-0.27;83.59
42601;BME280;28229;48.856;9.088;2023-01-27T15:28:58;98364.25;;;-0.28;83.59
42601;BME280;28229;48.856;9.088;2023-01-27T15:31:27;98362.88;;;-0.32;83.97
42601;BME280;28229;48.856;9.088;2023-01-27T15:36:36;98362.34;;;-0.26;84.01
42601;BME280;28229;48.856;9.088;2023-01-27T15:44:32;98362.88;;;-0.23;83.61
42601;BME280;28229;48.856;9.088;2023-01-27T15:47:09;98357.97;;;-0.16;83.69
42601;BME280;28229;48.856;9.088;2023-01-27T15:50:01;98357.16;;;-0.26;83.90
42601;BME280;28229;48.856;9.088;2023-01-27T15:52:31;98370.59;;;-0.13;83.89
42601;BME280;28229;48.856;9.088;2023-01-27T15:55:01;98366.38;;;-0.04;83.67
42601;BME280;28229;48.856;9.088;2023-01-27T15:57:36;98378.63;;;0.04;83.15
42601;BME280;28229;48.856;9.088;2023-01-27T16:00:07;98381.34;;;0.02;83.52
42601;BME280;28229;48.856;9.088;2023-01-27T16:02:50;98386.78;;;0.09;83.47
42601;BME280;28229;48.856;9.088;2023-01-27T16:05:26;98394.94;;;0.14;83.78